createdAt,value
2022-07-27T00:01:28.740Z,48.67
2022-07-27T00:03:55.446Z,48.91
2022-07-27T00:06:22.250Z,48.76
2022-07-27T00:08:48.936Z,48.84
2022-07-27T00:11:15.632Z,48.83
2022-07-27T00:13:42.346Z,48.70
2022-07-27T00:16:09.103Z,48.88
2022-07-27T00:18:35.794Z,48.92
2022-07-27T00:21:02.442Z,48.79
2022-07-27T00:23:29.143Z,48.54
2022-07-27T00:25:55.830Z,48.27
2022-07-27T00:28:22.515Z,48.52
2022-07-27T00:30:49.212Z,48.51
2022-07-27T00:33:17.203Z,48.39
2022-07-27T00:35:44.324Z,48.44
2022-07-27T00:38:11.076Z,48.15
2022-07-27T00:40:37.725Z,48.32
2022-07-27T00:43:04.453Z,47.96
2022-07-27T00:45:31.237Z,47.94
2022-07-27T00:47:57.961Z,48.16
2022-07-27T00:50:24.663Z,47.79
2022-07-27T00:52:51.530Z,47.95
2022-07-27T00:55:18.265Z,48.22
2022-07-27T00:57:58.412Z,48.11
2022-07-27T01:00:27.214Z,47.91
2022-07-27T01:02:54.215Z,47.70
2022-07-27T01:05:20.955Z,47.87
2022-07-27T01:07:49.311Z,47.82
2022-07-27T01:10:16.841Z,47.78
2022-07-27T01:12:45.292Z,48.22
2022-07-27T01:15:12.451Z,47.83
2022-07-27T01:17:39.120Z,48.14
2022-07-27T01:20:06.536Z,47.81
2022-07-27T01:22:33.199Z,48.07
2022-07-27T01:25:00.081Z,47.70
2022-07-27T01:27:26.854Z,47.81
2022-07-27T01:29:54.850Z,47.77
2022-07-27T01:32:21.554Z,47.79
2022-07-27T01:34:48.273Z,47.98
2022-07-27T01:37:14.999Z,47.55
2022-07-27T01:39:41.708Z,47.93
2022-07-27T01:42:08.408Z,48.14
2022-07-27T01:44:35.067Z,48.09
2022-07-27T01:47:01.836Z,48.09
2022-07-27T01:49:40.518Z,48.11
2022-07-27T01:52:07.146Z,47.79
2022-07-27T01:54:33.818Z,48.25
2022-07-27T01:57:00.466Z,47.91
2022-07-27T01:59:27.128Z,48.29
2022-07-27T02:01:53.931Z,48.21
2022-07-27T02:04:20.720Z,48.18
2022-07-27T02:06:47.540Z,47.99
2022-07-27T02:09:14.660Z,48.04
2022-07-27T02:12:00.307Z,47.91
2022-07-27T02:14:27.048Z,47.99
2022-07-27T02:16:54.755Z,47.65
2022-07-27T02:19:22.222Z,47.84
2022-07-27T02:21:48.855Z,48.00
2022-07-27T02:24:15.498Z,48.29
2022-07-27T02:26:42.174Z,47.95
2022-07-27T02:29:11.395Z,47.98
2022-07-27T02:31:38.226Z,47.76
2022-07-27T02:34:04.924Z,48.00
2022-07-27T02:36:31.616Z,47.38
2022-07-27T02:38:58.539Z,47.40
2022-07-27T02:41:25.325Z,47.79
2022-07-27T02:43:51.974Z,47.70
2022-07-27T02:46:18.833Z,47.56
2022-07-27T02:48:45.680Z,47.16
2022-07-27T02:51:12.681Z,47.23
2022-07-27T02:53:39.322Z,47.15
2022-07-27T02:56:06.128Z,47.47
2022-07-27T02:58:32.797Z,47.46
2022-07-27T03:00:59.474Z,47.41
2022-07-27T03:03:32.926Z,47.43
2022-07-27T03:06:03.695Z,46.99
2022-07-27T03:08:30.330Z,47.40
2022-07-27T03:10:56.999Z,46.99
2022-07-27T03:13:23.746Z,47.33
2022-07-27T03:15:50.450Z,46.89
2022-07-27T03:18:17.129Z,47.23
2022-07-27T03:20:43.861Z,47.28
2022-07-27T03:23:10.796Z,46.91
2022-07-27T03:25:37.514Z,46.98
2022-07-27T03:28:09.095Z,46.86
2022-07-27T03:30:35.875Z,46.91
2022-07-27T03:33:02.550Z,46.63
2022-07-27T03:35:29.253Z,46.71
2022-07-27T03:37:55.962Z,47.08
2022-07-27T03:40:22.684Z,46.98
2022-07-27T03:42:49.494Z,47.18
2022-07-27T03:45:16.168Z,47.31
2022-07-27T03:47:42.840Z,47.18
2022-07-27T03:50:09.738Z,47.19
2022-07-27T03:52:36.421Z,47.18
2022-07-27T03:55:03.226Z,46.76
2022-07-27T03:57:30.333Z,47.10
2022-07-27T03:59:57.021Z,46.29
2022-07-27T04:02:23.896Z,46.65
2022-07-27T04:04:50.743Z,46.62
2022-07-27T04:07:17.686Z,46.31
2022-07-27T04:09:46.054Z,46.35
2022-07-27T04:12:17.323Z,46.32
2022-07-27T04:14:44.300Z,46.15
2022-07-27T04:17:11.289Z,46.15
2022-07-27T04:19:38.255Z,45.83
2022-07-27T04:22:04.970Z,46.14
2022-07-27T04:24:31.793Z,45.95
2022-07-27T04:26:58.581Z,46.24
2022-07-27T04:29:25.763Z,46.43
2022-07-27T04:31:52.634Z,46.26
2022-07-27T04:34:22.045Z,46.41
2022-07-27T04:36:50.157Z,46.65
2022-07-27T04:39:17.051Z,46.23
2022-07-27T04:41:43.811Z,46.56
2022-07-27T04:44:10.700Z,46.73
2022-07-27T04:46:37.634Z,46.48
2022-07-27T04:49:04.581Z,46.48
2022-07-27T04:51:34.652Z,46.72
2022-07-27T04:54:02.369Z,46.65
2022-07-27T04:56:29.237Z,46.40
2022-07-27T04:58:56.345Z,46.66
2022-07-27T05:01:23.687Z,46.55
2022-07-27T05:03:50.799Z,46.31
2022-07-27T05:06:17.676Z,46.51
2022-07-27T05:08:44.481Z,46.11
2022-07-27T05:11:11.124Z,46.42
2022-07-27T05:13:40.055Z,46.47
2022-07-27T05:16:19.785Z,46.21
2022-07-27T05:18:46.631Z,46.66
2022-07-27T05:21:13.371Z,46.40
2022-07-27T05:23:40.154Z,46.60
2022-07-27T05:26:06.985Z,46.77
2022-07-27T05:28:33.735Z,46.79
2022-07-27T05:31:00.538Z,47.14
2022-07-27T05:33:27.185Z,47.26
2022-07-27T05:35:55.381Z,47.05
2022-07-27T05:38:22.506Z,46.74
2022-07-27T05:40:49.300Z,46.92
2022-07-27T05:43:15.986Z,46.71
2022-07-27T05:45:42.993Z,46.96
2022-07-27T05:48:15.888Z,46.97
2022-07-27T05:50:42.550Z,46.90
2022-07-27T05:53:09.710Z,46.70
2022-07-27T05:55:36.413Z,46.83
2022-07-27T05:58:03.125Z,47.06
2022-07-27T06:00:30.214Z,46.91
2022-07-27T06:02:57.002Z,47.24
2022-07-27T06:05:24.058Z,46.88
2022-07-27T06:07:59.846Z,47.13
2022-07-27T06:10:29.300Z,47.31
2022-07-27T06:12:56.660Z,46.85
2022-07-27T06:15:23.747Z,47.11
2022-07-27T06:17:52.892Z,47.11
2022-07-27T06:20:20.602Z,46.86
2022-07-27T06:22:48.814Z,47.02
2022-07-27T06:25:15.772Z,47.11
2022-07-27T06:27:42.615Z,47.04
2022-07-27T06:30:09.788Z,47.18
2022-07-27T06:32:36.534Z,46.95
2022-07-27T06:35:05.489Z,47.01
2022-07-27T06:37:34.086Z,47.01
2022-07-27T06:40:03.521Z,47.41
2022-07-27T06:42:30.748Z,46.86
2022-07-27T06:44:57.839Z,47.13
2022-07-27T06:47:28.677Z,46.94
2022-07-27T06:49:56.293Z,47.12
2022-07-27T06:52:23.372Z,47.14
2022-07-27T06:54:50.224Z,47.39
2022-07-27T06:57:17.243Z,47.23
2022-07-27T06:59:44.087Z,47.10
2022-07-27T07:02:11.150Z,47.46
2022-07-27T07:04:38.248Z,47.10
2022-07-27T07:07:07.298Z,47.49
2022-07-27T07:09:35.019Z,47.62
2022-07-27T07:12:02.681Z,47.57
2022-07-27T07:14:29.503Z,47.28
2022-07-27T07:16:56.206Z,47.12
2022-07-27T07:19:23.306Z,47.08
2022-07-27T07:21:50.417Z,47.31
2022-07-27T07:24:17.154Z,47.62
2022-07-27T07:26:45.389Z,47.05
2022-07-27T07:29:12.517Z,47.07
2022-07-27T07:31:40.252Z,47.53
2022-07-27T07:34:07.045Z,47.54
2022-07-27T07:36:33.850Z,47.56
2022-07-27T07:39:01.180Z,47.28
2022-07-27T07:41:28.527Z,47.47
2022-07-27T07:43:55.742Z,47.61
2022-07-27T07:46:22.543Z,47.68
2022-07-27T07:48:49.549Z,47.61
2022-07-27T07:51:16.381Z,47.51
2022-07-27T07:53:43.441Z,47.81
2022-07-27T07:56:10.842Z,47.54
2022-07-27T07:58:37.627Z,47.84
2022-07-27T08:01:04.351Z,47.62
2022-07-27T08:03:31.869Z,47.61
2022-07-27T08:05:59.211Z,47.91
2022-07-27T08:08:35.499Z,47.90
2022-07-27T08:11:02.423Z,47.74
2022-07-27T08:13:29.544Z,47.76
2022-07-27T08:15:56.627Z,47.93
2022-07-27T08:18:26.107Z,47.86
2022-07-27T08:20:53.227Z,48.12
2022-07-27T08:23:20.320Z,47.59
2022-07-27T08:25:47.149Z,48.21
2022-07-27T08:28:23.421Z,47.85
2022-07-27T08:30:50.135Z,47.96
2022-07-27T08:33:17.695Z,48.15
2022-07-27T08:35:45.307Z,48.15
2022-07-27T08:38:21.316Z,47.97
2022-07-27T08:40:49.064Z,48.20
2022-07-27T08:43:21.887Z,48.20
2022-07-27T08:45:55.555Z,47.90
2022-07-27T08:48:24.633Z,48.04
2022-07-27T08:50:51.579Z,47.93
2022-07-27T08:53:18.707Z,48.05
2022-07-27T08:55:47.212Z,47.91
2022-07-27T08:58:20.741Z,48.24
2022-07-27T09:00:50.041Z,48.12
2022-07-27T09:03:20.514Z,47.68
2022-07-27T09:05:49.611Z,47.62
2022-07-27T09:08:24.899Z,47.54
2022-07-27T09:10:52.796Z,47.25
2022-07-27T09:13:27.540Z,47.32
2022-07-27T09:16:16.989Z,47.10
2022-07-27T09:18:41.682Z,47.29
2022-07-27T09:21:14.553Z,47.04
2022-07-27T09:23:42.814Z,47.01
2022-07-27T09:26:24.771Z,47.32
2022-07-27T09:28:58.248Z,47.07
2022-07-27T09:31:25.405Z,46.88
2022-07-27T09:33:57.214Z,47.20
2022-07-27T09:36:25.147Z,46.84
2022-07-27T09:38:56.347Z,47.03
2022-07-27T09:41:27.426Z,46.76
2022-07-27T09:46:44.369Z,46.68
2022-07-27T09:49:26.348Z,46.59
2022-07-27T09:51:59.957Z,46.43
2022-07-27T09:54:29.055Z,46.47
2022-07-27T09:57:01.184Z,46.39
2022-07-27T09:59:28.717Z,46.42
2022-07-27T10:01:57.984Z,46.12
2022-07-27T10:04:25.027Z,46.36
2022-07-27T10:07:12.642Z,46.34
2022-07-27T10:09:39.908Z,46.31
2022-07-27T10:12:06.768Z,46.03
2022-07-27T10:14:33.539Z,46.45
2022-07-27T10:17:01.047Z,46.25
2022-07-27T10:19:30.861Z,46.02
2022-07-27T10:21:57.941Z,45.80
2022-07-27T10:24:37.248Z,46.20
2022-07-27T10:27:22.630Z,46.06
2022-07-27T10:29:50.792Z,46.11
2022-07-27T10:32:25.051Z,45.97
2022-07-27T10:34:52.485Z,46.26
2022-07-27T10:37:29.782Z,46.28
2022-07-27T10:40:23.716Z,45.74
2022-07-27T10:42:54.416Z,45.91
2022-07-27T10:45:22.478Z,45.97
2022-07-27T10:47:51.088Z,45.43
2022-07-27T10:50:18.111Z,45.83
2022-07-27T10:52:50.987Z,45.92
2022-07-27T10:55:29.991Z,45.55
2022-07-27T10:57:57.297Z,45.68
2022-07-27T11:00:43.242Z,45.82
2022-07-27T11:03:09.937Z,46.21
2022-07-27T11:08:38.143Z,46.00
2022-07-27T11:11:15.791Z,45.55
2022-07-27T11:13:43.078Z,45.84
2022-07-27T11:16:26.462Z,45.83
2022-07-27T11:18:55.365Z,45.76
2022-07-27T11:21:26.772Z,45.35
2022-07-27T11:24:12.581Z,45.35
2022-07-27T11:26:41.544Z,45.12
2022-07-27T11:29:10.178Z,45.03
2022-07-27T11:31:54.954Z,45.02
2022-07-27T11:34:29.377Z,45.13
2022-07-27T11:36:58.610Z,45.01
2022-07-27T11:39:59.074Z,45.38
2022-07-27T11:42:21.306Z,45.27
2022-07-27T11:44:51.260Z,45.07
2022-07-27T11:47:18.769Z,45.34
2022-07-27T11:49:46.160Z,45.14
2022-07-27T11:52:13.467Z,44.93
2022-07-27T11:54:41.362Z,45.29
2022-07-27T11:57:19.540Z,45.32
2022-07-27T11:59:46.626Z,45.20
2022-07-27T12:02:14.930Z,45.12
2022-07-27T12:04:45.499Z,45.07
2022-07-27T12:07:15.797Z,45.36
2022-07-27T12:09:47.050Z,45.39
2022-07-27T12:12:16.952Z,45.71
2022-07-27T12:14:57.552Z,45.52
2022-07-27T12:17:29.088Z,45.51
2022-07-27T12:20:02.846Z,45.85
2022-07-27T12:22:35.738Z,45.28
2022-07-27T12:25:16.187Z,45.18
2022-07-27T12:27:55.624Z,45.61
2022-07-27T12:30:49.035Z,45.49
2022-07-27T12:33:26.127Z,45.64
2022-07-27T12:35:53.692Z,45.89
2022-07-27T12:38:24.518Z,45.67
2022-07-27T12:41:00.192Z,45.57
2022-07-27T12:43:28.866Z,45.53
2022-07-27T12:45:57.332Z,45.50
2022-07-27T12:48:31.090Z,45.79
2022-07-27T12:50:59.843Z,45.80
2022-07-27T12:53:27.895Z,45.78
2022-07-27T12:55:57.951Z,45.59
2022-07-27T12:58:33.693Z,45.99
2022-07-27T13:01:01.028Z,45.95
2022-07-27T13:03:28.388Z,46.33
2022-07-27T13:05:55.569Z,46.13
2022-07-27T13:08:27.752Z,46.25
2022-07-27T13:10:54.684Z,46.38
2022-07-27T13:13:25.019Z,46.22
2022-07-27T13:15:52.544Z,46.66
2022-07-27T13:18:25.069Z,46.51
2022-07-27T13:20:52.389Z,46.57
2022-07-27T13:23:19.189Z,46.71
2022-07-27T13:25:45.966Z,46.44
2022-07-27T13:28:22.316Z,46.51
2022-07-27T13:30:49.067Z,46.69
2022-07-27T13:33:15.778Z,46.40
2022-07-27T13:35:43.408Z,46.46
2022-07-27T13:38:23.312Z,46.72
2022-07-27T13:40:50.257Z,46.39
2022-07-27T13:43:17.375Z,46.70
2022-07-27T13:45:44.159Z,46.44
2022-07-27T13:48:22.764Z,46.45
2022-07-27T13:50:49.830Z,46.88
2022-07-27T13:53:17.719Z,46.60
2022-07-27T13:55:44.941Z,46.89
2022-07-27T13:58:19.484Z,46.97
2022-07-27T14:00:46.274Z,47.06
2022-07-27T14:03:13.054Z,46.86
2022-07-27T14:05:49.193Z,46.76
2022-07-27T14:08:22.675Z,46.66
2022-07-27T14:10:49.520Z,46.95
2022-07-27T14:13:18.654Z,46.89
2022-07-27T14:15:53.469Z,46.53
2022-07-27T14:18:29.390Z,46.60
2022-07-27T14:20:57.766Z,47.00
2022-07-27T14:23:25.432Z,47.14
2022-07-27T14:25:54.112Z,47.21
2022-07-27T14:28:26.640Z,46.85
2022-07-27T14:30:53.572Z,46.84
2022-07-27T14:33:20.910Z,46.92
2022-07-27T14:35:48.552Z,46.93
2022-07-27T14:38:30.016Z,46.65
2022-07-27T14:40:58.451Z,46.57
2022-07-27T14:43:25.217Z,46.57
2022-07-27T14:45:52.487Z,46.66
2022-07-27T14:48:32.387Z,46.68
2022-07-27T14:51:09.087Z,46.77
2022-07-27T14:53:35.851Z,46.65
2022-07-27T14:56:02.555Z,46.49
2022-07-27T14:58:29.403Z,46.12
2022-07-27T15:00:58.473Z,46.25
2022-07-27T15:03:25.369Z,46.21
2022-07-27T15:05:52.146Z,46.55
2022-07-27T15:08:20.207Z,46.33
2022-07-27T15:10:47.461Z,46.22
2022-07-27T15:13:15.033Z,46.09
2022-07-27T15:15:45.140Z,46.53
2022-07-27T15:18:16.297Z,46.36
2022-07-27T15:20:43.070Z,46.16
2022-07-27T15:23:09.854Z,45.97
2022-07-27T15:25:36.847Z,46.02
2022-07-27T15:28:03.919Z,46.17
2022-07-27T15:30:34.965Z,45.76
2022-07-27T15:33:05.341Z,46.08
2022-07-27T15:35:32.147Z,46.07
2022-07-27T15:37:58.958Z,46.26
2022-07-27T15:40:38.215Z,45.96
2022-07-27T15:43:06.697Z,46.00
2022-07-27T15:45:39.003Z,45.99
2022-07-27T15:48:17.203Z,46.29
2022-07-27T15:50:45.152Z,45.86
2022-07-27T15:53:12.085Z,45.91
2022-07-27T15:55:39.186Z,45.98
2022-07-27T15:58:15.691Z,45.48
2022-07-27T16:00:42.433Z,45.79
2022-07-27T16:03:10.276Z,45.89
2022-07-27T16:05:37.663Z,46.01
2022-07-27T16:08:11.467Z,46.02
2022-07-27T16:10:38.910Z,45.79
2022-07-27T16:13:05.866Z,45.83
2022-07-27T16:15:51.719Z,46.06
2022-07-27T16:18:18.483Z,45.64
2022-07-27T16:20:45.324Z,45.80
2022-07-27T16:23:18.808Z,45.48
2022-07-27T16:26:07.498Z,45.48
2022-07-27T16:28:36.469Z,46.02
2022-07-27T16:31:03.931Z,45.89
2022-07-27T16:33:30.866Z,45.83
2022-07-27T16:35:57.869Z,46.05
2022-07-27T16:38:26.290Z,45.94
2022-07-27T16:40:52.929Z,45.82
2022-07-27T16:43:19.682Z,46.22
2022-07-27T16:45:46.510Z,45.86
2022-07-27T16:48:16.931Z,46.13
2022-07-27T16:50:43.652Z,46.06
2022-07-27T16:53:11.157Z,45.68
2022-07-27T16:55:38.106Z,45.92
2022-07-27T16:58:12.945Z,45.83
2022-07-27T17:00:40.031Z,45.72
2022-07-27T17:03:07.000Z,45.84
2022-07-27T17:05:33.866Z,45.70
2022-07-27T17:08:00.650Z,45.73
2022-07-27T17:10:27.731Z,45.59
2022-07-27T17:12:55.825Z,45.35
2022-07-27T17:15:24.776Z,45.52
2022-07-27T17:17:51.985Z,45.11
2022-07-27T17:20:31.511Z,45.39
2022-07-27T17:23:02.590Z,45.25
2022-07-27T17:25:29.543Z,45.39
2022-07-27T17:27:56.726Z,45.10
2022-07-27T17:30:24.145Z,45.15
2022-07-27T17:32:50.931Z,44.83
2022-07-27T17:35:17.867Z,45.01
2022-07-27T17:38:05.094Z,44.87
2022-07-27T17:40:33.112Z,44.35
2022-07-27T17:42:59.996Z,44.48
2022-07-27T17:45:26.803Z,44.18
2022-07-27T17:47:53.633Z,44.42
2022-07-27T17:50:20.676Z,44.83
2022-07-27T17:52:47.519Z,44.37
2022-07-27T17:55:14.198Z,44.21
2022-07-27T17:57:41.346Z,44.67
2022-07-27T18:00:09.730Z,44.62
2022-07-27T18:02:37.104Z,44.40
2022-07-27T18:05:04.150Z,43.99
2022-07-27T18:07:39.038Z,44.10
2022-07-27T18:10:07.862Z,44.41
2022-07-27T18:12:35.730Z,44.37
2022-07-27T18:15:21.435Z,44.40
2022-07-27T18:17:48.517Z,44.53
2022-07-27T18:20:15.369Z,44.24
2022-07-27T18:22:42.275Z,44.40
2022-07-27T18:25:09.366Z,44.02
2022-07-27T18:27:36.647Z,43.97
2022-07-27T18:30:04.881Z,43.63
2022-07-27T18:32:33.783Z,43.72
2022-07-27T18:35:01.973Z,43.70
2022-07-27T18:37:28.956Z,44.00
2022-07-27T18:39:56.058Z,44.40
2022-07-27T18:42:23.007Z,44.03
2022-07-27T18:44:49.953Z,44.01
2022-07-27T18:47:16.844Z,43.60
2022-07-27T18:49:47.646Z,43.74
2022-07-27T18:52:14.501Z,43.90
2022-07-27T18:54:41.454Z,43.83
2022-07-27T18:57:08.297Z,44.05
2022-07-27T18:59:38.159Z,43.96
2022-07-27T19:02:08.596Z,43.98
2022-07-27T19:04:35.663Z,44.14
2022-07-27T19:07:07.475Z,44.24
2022-07-27T19:09:34.519Z,43.95
2022-07-27T19:12:07.576Z,43.92
2022-07-27T19:14:36.302Z,43.98
2022-07-27T19:17:03.689Z,43.58
2022-07-27T19:19:31.133Z,43.51
2022-07-27T19:21:58.343Z,43.79
2022-07-27T19:24:25.279Z,43.60
2022-07-27T19:26:52.292Z,43.37
2022-07-27T19:29:20.410Z,43.51
2022-07-27T19:31:47.657Z,43.44
2022-07-27T19:34:14.663Z,43.39
2022-07-27T19:36:41.604Z,43.33
2022-07-27T19:39:08.651Z,43.24
2022-07-27T19:41:38.716Z,43.15
2022-07-27T19:44:06.057Z,43.37
2022-07-27T19:46:33.250Z,43.23
2022-07-27T19:49:00.461Z,43.40
2022-07-27T19:51:27.692Z,43.04
2022-07-27T19:53:54.596Z,43.15
2022-07-27T19:56:21.889Z,43.30
2022-07-27T19:58:48.889Z,43.19
2022-07-27T20:01:16.365Z,42.78
2022-07-27T20:03:52.637Z,43.05
2022-07-27T20:06:21.286Z,43.01
2022-07-27T20:08:48.254Z,42.97
2022-07-27T20:11:14.941Z,43.12
2022-07-27T20:13:41.673Z,42.71
2022-07-27T20:16:08.393Z,42.97
2022-07-27T20:18:37.080Z,42.89
2022-07-27T20:21:03.838Z,42.72
2022-07-27T20:23:30.632Z,42.91
2022-07-27T20:25:57.413Z,42.99
2022-07-27T20:28:24.229Z,42.94
2022-07-27T20:30:51.119Z,43.09
2022-07-27T20:33:21.534Z,42.71
2022-07-27T20:35:48.193Z,42.56
2022-07-27T20:38:14.867Z,42.51
2022-07-27T20:40:41.840Z,42.53
2022-07-27T20:43:08.535Z,42.17
2022-07-27T20:45:35.273Z,42.15
2022-07-27T20:48:02.176Z,42.12
2022-07-27T20:50:29.104Z,42.16
2022-07-27T20:52:55.952Z,41.84
2022-07-27T20:55:22.642Z,42.08
2022-07-27T20:57:49.389Z,42.28
2022-07-27T21:00:16.233Z,42.27
2022-07-27T21:02:43.070Z,42.16
2022-07-27T21:05:09.988Z,42.31
2022-07-27T21:07:36.846Z,42.11
2022-07-27T21:10:04.096Z,42.35
2022-07-27T21:12:30.933Z,42.37
2022-07-27T21:14:57.562Z,42.58
2022-07-27T21:17:24.298Z,42.08
2022-07-27T21:19:51.106Z,42.42
2022-07-27T21:22:19.529Z,42.58
2022-07-27T21:24:46.233Z,42.42
2022-07-27T21:27:16.338Z,42.60
2022-07-27T21:29:47.898Z,42.78
2022-07-27T21:32:14.748Z,42.68
2022-07-27T21:34:41.452Z,42.73
2022-07-27T21:37:08.339Z,42.60
2022-07-27T21:39:35.135Z,42.83
2022-07-27T21:42:02.502Z,42.97
2022-07-27T21:44:30.281Z,43.00
2022-07-27T21:46:57.075Z,42.82
2022-07-27T21:49:29.037Z,42.74
2022-07-27T21:52:01.397Z,42.98
2022-07-27T21:54:28.051Z,42.92
2022-07-27T21:56:54.812Z,42.93
2022-07-27T21:59:21.467Z,42.88
2022-07-27T22:01:48.290Z,43.28
2022-07-27T22:04:16.476Z,43.17
2022-07-27T22:06:43.958Z,43.42
2022-07-27T22:09:10.607Z,43.09
2022-07-27T22:11:37.306Z,43.37
2022-07-27T22:14:04.046Z,43.71
2022-07-27T22:16:30.763Z,43.61
2022-07-27T22:18:57.549Z,43.47
2022-07-27T22:21:24.252Z,43.72
2022-07-27T22:23:50.986Z,43.87
2022-07-27T22:26:17.766Z,43.72
2022-07-27T22:28:44.458Z,43.87
2022-07-27T22:31:22.812Z,43.91
2022-07-27T22:33:50.139Z,44.03
2022-07-27T22:36:16.857Z,43.93
2022-07-27T22:38:43.543Z,44.19
2022-07-27T22:41:10.186Z,44.50
2022-07-27T22:43:36.863Z,44.31
2022-07-27T22:46:04.486Z,44.36
2022-07-27T22:48:31.471Z,44.23
2022-07-27T22:50:58.118Z,44.44
2022-07-27T22:53:24.916Z,44.38
2022-07-27T22:55:51.619Z,44.42
2022-07-27T22:58:20.903Z,44.59
2022-07-27T23:00:47.653Z,44.37
2022-07-27T23:03:14.579Z,44.24
2022-07-27T23:05:41.283Z,44.76
2022-07-27T23:08:12.994Z,44.61
2022-07-27T23:10:48.547Z,44.92
2022-07-27T23:13:15.922Z,44.85
2022-07-27T23:15:42.964Z,44.88
2022-07-27T23:18:13.096Z,44.71
2022-07-27T23:20:41.127Z,45.18
2022-07-27T23:23:12.964Z,45.27
2022-07-27T23:25:43.517Z,44.78
2022-07-27T23:28:12.944Z,45.13
2022-07-27T23:30:39.631Z,45.10
2022-07-27T23:33:06.303Z,45.05
2022-07-27T23:35:32.955Z,45.31
2022-07-27T23:38:00.242Z,45.15
2022-07-27T23:40:26.967Z,45.16
2022-07-27T23:42:53.748Z,45.29
2022-07-27T23:45:20.522Z,44.99
2022-07-27T23:47:47.337Z,45.00
2022-07-27T23:50:14.332Z,44.90
2022-07-27T23:52:41.004Z,45.07
2022-07-27T23:55:08.186Z,45.36
2022-07-27T23:57:34.864Z,44.92
